^^
Grace C. Lehan Memorial Weather Station Historical Data
Daily Summary for November 14, 2021 Units:  Both    English   Metric
Daily Weekly Monthly Yearly
  High: Low: Average:
Temperature: 52.3 °F /  11.3 °C 36.6 °F /  2.6 °C 44.5 °F /  6.9 °C
Dew Point: 39.5 °F /  4.2 °C 33.2 °F /  0.7 °C 36.3 °F /  2.4 °C
Humidity: 89% 53.4% 74%
Wind Speed: 3.7mph /  6km/h - 0.6mph /  1km/h
Wind Gust: 15mph /  24.1km/h - -
Wind- - WSW
Pressure: 29.89 in /  1012.1 hPa 29.76 in /  1007.7 hPa -
Precipitation: 0.02 in /  0.51 mm    
 
 
Tabular Data for November 14, 2021
Time Temperature Dew Point Pressure Wind Wind Speed Wind Gust Humidity Rainfall Rate (Hourly) solar
00:04 38.2 °F /  3.4 °C 35.3 °F /  1.8 °C 29.77in /  1008hPa WSW 0.8mph /  1.3km/h 6mph /  9.7km/h 89% 0.00in /  0mm 0 W/m2
00:09 38.2 °F /  3.4 °C 35.3 °F /  1.8 °C 29.77in /  1008hPa Calm   6mph /  9.7km/h 89% 0.00in /  0mm 0 W/m2
00:14 38.2 °F /  3.4 °C 35.2 °F /  1.8 °C 29.77in /  1008hPa WSW 0.4mph /  0.6km/h 6mph /  9.7km/h 89% 0.00in /  0mm 0 W/m2
00:19 38.1 °F /  3.4 °C 35.2 °F /  1.8 °C 29.77in /  1008hPa WSW 0.3mph /  0.5km/h 6mph /  9.7km/h 89% 0.00in /  0mm 0 W/m2
00:24 38.1 °F /  3.4 °C 35.1 °F /  1.7 °C 29.77in /  1008hPa WSW 0.4mph /  0.6km/h 6mph /  9.7km/h 89% 0.00in /  0mm 0 W/m2
00:29 38 °F /  3.3 °C 34.9 °F /  1.6 °C 29.77in /  1008hPa SW 1.5mph /  2.4km/h 10mph /  16.1km/h 88.5% 0.00in /  0mm 0 W/m2
00:34 38 °F /  3.3 °C 34.8 °F /  1.6 °C 29.78in /  1008.4hPa WSW 3.7mph /  6km/h 10mph /  16.1km/h 88% 0.00in /  0mm 0 W/m2
00:39 38 °F /  3.3 °C 34.8 °F /  1.6 °C 29.78in /  1008.4hPa WSW 2.5mph /  4km/h 9mph /  14.5km/h 88% 0.00in /  0mm 0 W/m2
00:44 38.1 °F /  3.4 °C 34.9 °F /  1.6 °C 29.78in /  1008.4hPa WSW 2.8mph /  4.5km/h 10mph /  16.1km/h 88% 0.00in /  0mm 0 W/m2
00:49 38.2 °F /  3.4 °C 34.8 °F /  1.6 °C 29.78in /  1008.4hPa SW 1.3mph /  2.1km/h 10mph /  16.1km/h 87.5% 0.00in /  0mm 0 W/m2
00:54 38.3 °F /  3.5 °C 34.8 °F /  1.6 °C 29.77in /  1008hPa SW 3mph /  4.8km/h 15mph /  24.1km/h 87% 0.00in /  0mm 0 W/m2
00:59 38.4 °F /  3.6 °C 34.8 °F /  1.6 °C 29.78in /  1008.4hPa SW 1.4mph /  2.3km/h 15mph /  24.1km/h 86.5% 0.00in /  0mm 0 W/m2
01:04 38.5 °F /  3.6 °C 34.7 °F /  1.5 °C 29.78in /  1008.4hPa SW 0.9mph /  1.4km/h 15mph /  24.1km/h 86% 0.00in /  0mm 0 W/m2
01:09 38.5 °F /  3.6 °C 34.7 °F /  1.5 °C 29.78in /  1008.4hPa WSW 0.5mph /  0.8km/h 7mph /  11.3km/h 86% 0.00in /  0mm 0 W/m2
01:14 38.5 °F /  3.6 °C 34.7 °F /  1.5 °C 29.78in /  1008.4hPa SW 0.9mph /  1.4km/h 7mph /  11.3km/h 86% 0.00in /  0mm 0 W/m2
01:19 38.4 °F /  3.6 °C 34.6 °F /  1.4 °C 29.79in /  1008.7hPa SW 1.3mph /  2.1km/h 7mph /  11.3km/h 86% 0.00in /  0mm 0 W/m2
01:24 38.4 °F /  3.6 °C 34.6 °F /  1.4 °C 29.79in /  1008.7hPa WSW 2mph /  3.2km/h 7mph /  11.3km/h 86% 0.00in /  0mm 0 W/m2
01:29 38.4 °F /  3.6 °C 34.3 °F /  1.3 °C 29.79in /  1008.7hPa WSW 1.2mph /  1.9km/h 7mph /  11.3km/h 85% 0.00in /  0mm 0 W/m2
01:34 38.4 °F /  3.6 °C 34.3 °F /  1.3 °C 29.79in /  1008.7hPa WSW 0.9mph /  1.4km/h 7mph /  11.3km/h 85% 0.00in /  0mm 0 W/m2
01:39 38.4 °F /  3.6 °C 34.3 °F /  1.3 °C 29.79in /  1008.7hPa WSW 0.8mph /  1.3km/h 7mph /  11.3km/h 85% 0.00in /  0mm 0 W/m2
01:44 38.3 °F /  3.5 °C 34.2 °F /  1.2 °C 29.79in /  1008.7hPa WSW 0.1mph /  0.2km/h 7mph /  11.3km/h 85% 0.00in /  0mm 0 W/m2
01:49 38.3 °F /  3.5 °C 34.2 °F /  1.2 °C 29.79in /  1008.7hPa West 1.4mph /  2.3km/h 10mph /  16.1km/h 85% 0.00in /  0mm 0 W/m2
01:54 38.3 °F /  3.5 °C 34.2 °F /  1.2 °C 29.79in /  1008.7hPa West 0.2mph /  0.3km/h 10mph /  16.1km/h 85% 0.00in /  0mm 0 W/m2
01:59 38.2 °F /  3.4 °C 34.1 °F /  1.2 °C 29.79in /  1008.7hPa West 0.4mph /  0.6km/h 10mph /  16.1km/h 85% 0.00in /  0mm 0 W/m2
02:04 38.2 °F /  3.4 °C 34.1 °F /  1.2 °C 29.80in /  1009hPa West 0.1mph /  0.2km/h 10mph /  16.1km/h 85% 0.00in /  0mm 0 W/m2
02:09 38.1 °F /  3.4 °C 34 °F /  1.1 °C 29.80in /  1009hPa West 0.2mph /  0.3km/h 4mph /  6.4km/h 85% 0.00in /  0mm 0 W/m2
02:14 38 °F /  3.3 °C 33.9 °F /  1.1 °C 29.80in /  1009hPa West 0.2mph /  0.3km/h 4mph /  6.4km/h 85% 0.00in /  0mm 0 W/m2
02:19 38 °F /  3.3 °C 33.9 °F /  1.1 °C 29.81in /  1009.4hPa West 0.4mph /  0.6km/h 5mph /  8km/h 85% 0.00in /  0mm 0 W/m2
02:24 37.9 °F /  3.3 °C 33.8 °F /  1 °C 29.81in /  1009.4hPa West 1.1mph /  1.8km/h 7mph /  11.3km/h 85% 0.00in /  0mm 0 W/m2
02:29 38 °F /  3.3 °C 33.9 °F /  1.1 °C 29.81in /  1009.4hPa West 0.8mph /  1.3km/h 7mph /  11.3km/h 85% 0.00in /  0mm 0 W/m2
02:34 38 °F /  3.3 °C 33.9 °F /  1.1 °C 29.81in /  1009.4hPa WNW 0.5mph /  0.8km/h 7mph /  11.3km/h 85% 0.00in /  0mm 0 W/m2
02:39 38 °F /  3.3 °C 33.9 °F /  1.1 °C 29.80in /  1009hPa WSW 1.4mph /  2.3km/h 10mph /  16.1km/h 85% 0.00in /  0mm 0 W/m2
02:44 38.1 °F /  3.4 °C 34 °F /  1.1 °C 29.80in /  1009hPa WSW 1.5mph /  2.4km/h 10mph /  16.1km/h 85% 0.00in /  0mm 0 W/m2
02:49 38.2 °F /  3.4 °C 34 °F /  1.1 °C 29.80in /  1009hPa WSW 2.2mph /  3.5km/h 10mph /  16.1km/h 84.9% 0.00in /  0mm 0 W/m2
02:54 38.2 °F /  3.4 °C 33.9 °F /  1.1 °C 29.80in /  1009hPa WSW 2.7mph /  4.3km/h 10mph /  16.1km/h 84.2% 0.00in /  0mm 0 W/m2
02:59 38.3 °F /  3.5 °C 33.9 °F /  1.1 °C 29.80in /  1009hPa West 1.8mph /  2.9km/h 10mph /  16.1km/h 84% 0.00in /  0mm 0 W/m2
03:04 38.3 °F /  3.5 °C 33.9 °F /  1.1 °C 29.81in /  1009.4hPa WSW 2.4mph /  3.9km/h 10mph /  16.1km/h 84% 0.00in /  0mm 0 W/m2
03:09 38.3 °F /  3.5 °C 33.9 °F /  1.1 °C 29.81in /  1009.4hPa West 1mph /  1.6km/h 10mph /  16.1km/h 84% 0.00in /  0mm 0 W/m2
03:14 38.3 °F /  3.5 °C 33.9 °F /  1.1 °C 29.81in /  1009.4hPa West 1.2mph /  1.9km/h 10mph /  16.1km/h 84% 0.00in /  0mm 0 W/m2
03:19 38.2 °F /  3.4 °C 33.8 °F /  1 °C 29.81in /  1009.4hPa WSW 1.6mph /  2.6km/h 10mph /  16.1km/h 84% 0.00in /  0mm 0 W/m2
03:24 38.2 °F /  3.4 °C 33.8 °F /  1 °C 29.81in /  1009.4hPa WSW 1.9mph /  3.1km/h 13mph /  20.9km/h 84% 0.00in /  0mm 0 W/m2
03:29 38.2 °F /  3.4 °C 33.8 °F /  1 °C 29.81in /  1009.4hPa WSW 1.1mph /  1.8km/h 13mph /  20.9km/h 84% 0.00in /  0mm 0 W/m2
03:34 38.1 °F /  3.4 °C 33.7 °F /  0.9 °C 29.81in /  1009.4hPa WSW 0.6mph /  1km/h 13mph /  20.9km/h 84% 0.00in /  0mm 0 W/m2
03:39 38 °F /  3.3 °C 33.9 °F /  1.1 °C 29.81in /  1009.4hPa WSW 0.7mph /  1.1km/h 7mph /  11.3km/h 84.9% 0.00in /  0mm 0 W/m2
03:44 38 °F /  3.3 °C 33.9 °F /  1.1 °C 29.81in /  1009.4hPa WSW 1.2mph /  1.9km/h 7mph /  11.3km/h 85% 0.00in /  0mm 0 W/m2
03:49 37.9 °F /  3.3 °C 33.8 °F /  1 °C 29.82in /  1009.7hPa WSW 2.2mph /  3.5km/h 8mph /  12.9km/h 85% 0.00in /  0mm 0 W/m2
03:54 37.9 °F /  3.3 °C 33.8 °F /  1 °C 29.82in /  1009.7hPa WSW 0.9mph /  1.4km/h 8mph /  12.9km/h 85% 0.00in /  0mm 0 W/m2
03:59 37.9 °F /  3.3 °C 33.8 °F /  1 °C 29.82in /  1009.7hPa WSW 0.4mph /  0.6km/h 8mph /  12.9km/h 85% 0.00in /  0mm 0 W/m2
04:00 37.9 °F /  3.3 °C 33.8 °F /  1 °C 29.82in /  1009.7hPa Calm   8mph /  12.9km/h 85% 0.00in /  0mm 0 W/m2
04:09 37.8 °F /  3.2 °C 33.7 °F /  0.9 °C 29.82in /  1009.7hPa WSW 0.4mph /  0.6km/h 3mph /  4.8km/h 85% 0.00in /  0mm 0 W/m2
04:14 37.8 °F /  3.2 °C 33.7 °F /  0.9 °C 29.82in /  1009.7hPa WSW 1.3mph /  2.1km/h 10mph /  16.1km/h 85% 0.00in /  0mm 0 W/m2
04:19 37.7 °F /  3.2 °C 33.6 °F /  0.9 °C 29.82in /  1009.7hPa WSW 1mph /  1.6km/h 10mph /  16.1km/h 85% 0.00in /  0mm 0 W/m2
04:24 37.7 °F /  3.2 °C 33.6 °F /  0.9 °C 29.82in /  1009.7hPa WSW 1.4mph /  2.3km/h 10mph /  16.1km/h 85% 0.00in /  0mm 0 W/m2
04:29 37.7 °F /  3.2 °C 33.6 °F /  0.9 °C 29.82in /  1009.7hPa WSW 1.1mph /  1.8km/h 10mph /  16.1km/h 85% 0.00in /  0mm 0 W/m2
04:34 37.7 °F /  3.2 °C 33.6 °F /  0.9 °C 29.82in /  1009.7hPa SW 2.6mph /  4.2km/h 11mph /  17.7km/h 85% 0.00in /  0mm 0 W/m2
04:39 37.7 °F /  3.2 °C 33.9 °F /  1.1 °C 29.82in /  1009.7hPa SW 1.2mph /  1.9km/h 11mph /  17.7km/h 85.9% 0.00in /  0mm 0 W/m2
04:44 37.6 °F /  3.1 °C 33.8 °F /  1 °C 29.82in /  1009.7hPa WSW 1mph /  1.6km/h 11mph /  17.7km/h 86% 0.00in /  0mm 0 W/m2
04:49 37.6 °F /  3.1 °C 33.8 °F /  1 °C 29.83in /  1010hPa WSW 0.6mph /  1km/h 11mph /  17.7km/h 86% 0.00in /  0mm 0 W/m2
04:54 37.5 °F /  3.1 °C 33.5 °F /  0.8 °C 29.83in /  1010hPa WSW 0.4mph /  0.6km/h 11mph /  17.7km/h 85.3% 0.00in /  0mm 0 W/m2
04:59 37.5 °F /  3.1 °C 33.5 °F /  0.8 °C 29.83in /  1010hPa WSW 0.1mph /  0.2km/h 11mph /  17.7km/h 85.4% 0.00in /  0mm 0 W/m2
05:04 37.4 °F /  3 °C 33.6 °F /  0.9 °C 29.83in /  1010hPa WSW 0.4mph /  0.6km/h 11mph /  17.7km/h 86% 0.00in /  0mm 0 W/m2
05:09 37.3 °F /  2.9 °C 33.4 °F /  0.8 °C 29.83in /  1010hPa WSW 0.4mph /  0.6km/h 8mph /  12.9km/h 85.8% 0.00in /  0mm 0 W/m2
05:14 37.2 °F /  2.9 °C 33.4 °F /  0.8 °C 29.83in /  1010hPa WSW 0.3mph /  0.5km/h 8mph /  12.9km/h 86% 0.00in /  0mm 0 W/m2
05:19 37.1 °F /  2.8 °C 33.3 °F /  0.7 °C 29.83in /  1010hPa WSW 1.1mph /  1.8km/h 8mph /  12.9km/h 86% 0.00in /  0mm 0 W/m2
05:24 37.1 °F /  2.8 °C 33.3 °F /  0.7 °C 29.83in /  1010hPa WSW 0.9mph /  1.4km/h 8mph /  12.9km/h 86% 0.00in /  0mm 0 W/m2
05:29 37 °F /  2.8 °C 33.2 °F /  0.7 °C 29.83in /  1010hPa WSW 0.5mph /  0.8km/h 8mph /  12.9km/h 86% 0.00in /  0mm 0 W/m2
05:34 37 °F /  2.8 °C 33.3 °F /  0.7 °C 29.83in /  1010hPa WSW 0.6mph /  1km/h 8mph /  12.9km/h 86.3% 0.00in /  0mm 0 W/m2
05:39 36.9 °F /  2.7 °C 33.4 °F /  0.8 °C 29.83in /  1010hPa WSW 0.2mph /  0.3km/h 5mph /  8km/h 87% 0.00in /  0mm 0 W/m2
05:44 36.8 °F /  2.7 °C 33.3 °F /  0.7 °C 29.84in /  1010.4hPa WSW 0.1mph /  0.2km/h 5mph /  8km/h 87% 0.00in /  0mm 0 W/m2
05:49 36.8 °F /  2.7 °C 33.3 °F /  0.7 °C 29.84in /  1010.4hPa Calm   5mph /  8km/h 87% 0.00in /  0mm 0 W/m2
05:54 36.8 °F /  2.7 °C 33.3 °F /  0.7 °C 29.84in /  1010.4hPa Calm   5mph /  8km/h 87% 0.00in /  0mm 0 W/m2
05:59 36.7 °F /  2.6 °C 33.2 °F /  0.7 °C 29.84in /  1010.4hPa Calm   5mph /  8km/h 87% 0.00in /  0mm 0 W/m2
06:04 36.7 °F /  2.6 °C 33.3 °F /  0.7 °C 29.84in /  1010.4hPa WSW 0.2mph /  0.3km/h 5mph /  8km/h 87.5% 0.00in /  0mm 0 W/m2
06:09 36.7 °F /  2.6 °C 33.5 °F /  0.8 °C 29.84in /  1010.4hPa WSW 0.8mph /  1.3km/h 6mph /  9.7km/h 88% 0.00in /  0mm 0 W/m2
06:14 36.6 °F /  2.6 °C 33.4 °F /  0.8 °C 29.84in /  1010.4hPa SW 0.4mph /  0.6km/h 6mph /  9.7km/h 88% 0.00in /  0mm 0 W/m2
06:19 36.6 °F /  2.6 °C 33.4 °F /  0.8 °C 29.84in /  1010.4hPa SW 0.6mph /  1km/h 6mph /  9.7km/h 88% 0.00in /  0mm 0 W/m2
06:24 36.7 °F /  2.6 °C 33.5 °F /  0.8 °C 29.84in /  1010.4hPa Calm   6mph /  9.7km/h 88% 0.00in /  0mm 0 W/m2
06:29 36.7 °F /  2.6 °C 33.5 °F /  0.8 °C 29.84in /  1010.4hPa SW 0.1mph /  0.2km/h 6mph /  9.7km/h 88% 0.00in /  0mm 0 W/m2
06:34 36.7 °F /  2.6 °C 33.5 °F /  0.8 °C 29.85in /  1010.7hPa SW 0.3mph /  0.5km/h 6mph /  9.7km/h 88% 0.00in /  0mm 0 W/m2
06:39 36.7 °F /  2.6 °C 33.5 °F /  0.8 °C 29.85in /  1010.7hPa WSW 0.1mph /  0.2km/h 3mph /  4.8km/h 88% 0.00in /  0mm 0 W/m2
06:44 36.7 °F /  2.6 °C 33.5 °F /  0.8 °C 29.85in /  1010.7hPa WSW 0.2mph /  0.3km/h 3mph /  4.8km/h 88% 0.00in /  0mm 5 W/m2
06:49 36.7 °F /  2.6 °C 33.5 °F /  0.8 °C 29.85in /  1010.7hPa WSW 0.8mph /  1.3km/h 10mph /  16.1km/h 88% 0.00in /  0mm 7 W/m2
06:54 36.8 °F /  2.7 °C 33.6 °F /  0.9 °C 29.85in /  1010.7hPa West 0.1mph /  0.2km/h 10mph /  16.1km/h 88% 0.00in /  0mm 11 W/m2
06:59 36.8 °F /  2.7 °C 33.6 °F /  0.9 °C 29.85in /  1010.7hPa West 0.4mph /  0.6km/h 10mph /  16.1km/h 88% 0.00in /  0mm 12 W/m2
07:04 36.9 °F /  2.7 °C 33.7 °F /  0.9 °C 29.86in /  1011.1hPa West 0.3mph /  0.5km/h 10mph /  16.1km/h 88% 0.00in /  0mm 16 W/m2
07:09 36.9 °F /  2.7 °C 33.7 °F /  0.9 °C 29.86in /  1011.1hPa West 2.1mph /  3.4km/h 10mph /  16.1km/h 88% 0.00in /  0mm 21 W/m2
07:14 37.1 °F /  2.8 °C 33.9 °F /  1.1 °C 29.85in /  1010.7hPa West 0.6mph /  1km/h 10mph /  16.1km/h 88% 0.00in /  0mm 49 W/m2
07:19 37.4 °F /  3 °C 34.2 °F /  1.2 °C 29.86in /  1011.1hPa West 0.4mph /  0.6km/h 10mph /  16.1km/h 88% 0.00in /  0mm 33 W/m2
07:24 37.7 °F /  3.2 °C 34.5 °F /  1.4 °C 29.86in /  1011.1hPa WSW 1.7mph /  2.7km/h 10mph /  16.1km/h 87.9% 0.00in /  0mm 23 W/m2
07:29 38 °F /  3.3 °C 34.7 °F /  1.5 °C 29.87in /  1011.4hPa West 0.8mph /  1.3km/h 10mph /  16.1km/h 87.6% 0.00in /  0mm 33 W/m2
07:34 38.3 °F /  3.5 °C 34.8 °F /  1.6 °C 29.86in /  1011.1hPa West 1.3mph /  2.1km/h 10mph /  16.1km/h 86.9% 0.00in /  0mm 39 W/m2
07:39 38.5 °F /  3.6 °C 34.7 °F /  1.5 °C 29.87in /  1011.4hPa WSW 0.9mph /  1.4km/h 6mph /  9.7km/h 86% 0.00in /  0mm 44 W/m2
07:44 38.8 °F /  3.8 °C 35 °F /  1.7 °C 29.88in /  1011.7hPa WSW 0.5mph /  0.8km/h 6mph /  9.7km/h 86% 0.00in /  0mm 49 W/m2
07:49 39.1 °F /  3.9 °C 35.2 °F /  1.8 °C 29.88in /  1011.7hPa West 0.2mph /  0.3km/h 6mph /  9.7km/h 86% 0.00in /  0mm 47 W/m2
07:54 39.4 °F /  4.1 °C 35.5 °F /  1.9 °C 29.88in /  1011.7hPa WSW 0.5mph /  0.8km/h 6mph /  9.7km/h 85.9% 0.00in /  0mm 113 W/m2
07:59 39.8 °F /  4.3 °C 35.7 °F /  2.1 °C 29.88in /  1011.7hPa WSW 0.6mph /  1km/h 6mph /  9.7km/h 85.1% 0.00in /  0mm 186 W/m2
08:00 40.1 °F /  4.5 °C 36 °F /  2.2 °C 29.87in /  1011.4hPa Calm   6mph /  9.7km/h 85% 0.00in /  0mm 162 W/m2
08:09 41.4 °F /  5.2 °C 36.9 °F /  2.7 °C 29.88in /  1011.7hPa WSW 0.1mph /  0.2km/h 2mph /  3.2km/h 84% 0.00in /  0mm 197 W/m2
08:14 42.3 °F /  5.7 °C 37.6 °F /  3.1 °C 29.88in /  1011.7hPa WNW 0.4mph /  0.6km/h 5mph /  8km/h 83.1% 0.00in /  0mm 253 W/m2
08:19 43.3 °F /  6.3 °C 37.8 °F /  3.2 °C 29.88in /  1011.7hPa WNW 0.5mph /  0.8km/h 5mph /  8km/h 80.8% 0.00in /  0mm 272 W/m2
08:24 44.2 °F /  6.8 °C 38.2 °F /  3.4 °C 29.88in /  1011.7hPa Calm   5mph /  8km/h 79.2% 0.00in /  0mm 287 W/m2
08:29 45.2 °F /  7.3 °C 38.4 °F /  3.6 °C 29.88in /  1011.7hPa WNW 1.1mph /  1.8km/h 5mph /  8km/h 76.9% 0.00in /  0mm 299 W/m2
08:34 46.1 °F /  7.8 °C 38.4 °F /  3.6 °C 29.88in /  1011.7hPa West 0.4mph /  0.6km/h 5mph /  8km/h 74.4% 0.00in /  0mm 309 W/m2
08:39 46.8 °F /  8.2 °C 38.5 °F /  3.6 °C 29.88in /  1011.7hPa WSW 1.6mph /  2.6km/h 9mph /  14.5km/h 72.8% 0.00in /  0mm 323 W/m2
08:44 47.2 °F /  8.4 °C 38.3 °F /  3.5 °C 29.88in /  1011.7hPa WSW 1.4mph /  2.3km/h 9mph /  14.5km/h 71% 0.00in /  0mm 332 W/m2
08:49 47.6 °F /  8.7 °C 38.4 °F /  3.6 °C 29.88in /  1011.7hPa West 0.4mph /  0.6km/h 9mph /  14.5km/h 70.2% 0.00in /  0mm 341 W/m2
08:54 48 °F /  8.9 °C 38.7 °F /  3.7 °C 29.88in /  1011.7hPa WNW 1mph /  1.6km/h 9mph /  14.5km/h 70.1% 0.00in /  0mm 348 W/m2
08:59 48.2 °F /  9 °C 38.7 °F /  3.7 °C 29.88in /  1011.7hPa WSW 0.8mph /  1.3km/h 9mph /  14.5km/h 69.5% 0.00in /  0mm 367 W/m2
09:04 48.2 °F /  9 °C 38.5 °F /  3.6 °C 29.88in /  1011.7hPa WSW 0.9mph /  1.4km/h 9mph /  14.5km/h 68.8% 0.00in /  0mm 367 W/m2
09:09 48.1 °F /  8.9 °C 38.4 °F /  3.6 °C 29.89in /  1012.1hPa WSW 0.5mph /  0.8km/h 7mph /  11.3km/h 68.9% 0.00in /  0mm 139 W/m2
09:14 47.8 °F /  8.8 °C 38.1 °F /  3.4 °C 29.89in /  1012.1hPa WSW 0.8mph /  1.3km/h 7mph /  11.3km/h 68.7% 0.00in /  0mm 308 W/m2
09:19 47.6 °F /  8.7 °C 38.2 °F /  3.4 °C 29.88in /  1011.7hPa West 1.1mph /  1.8km/h 8mph /  12.9km/h 69.7% 0.00in /  0mm 367 W/m2
09:24 47.6 °F /  8.7 °C 38.3 °F /  3.5 °C 29.89in /  1012.1hPa WSW 2.2mph /  3.5km/h 9mph /  14.5km/h 70% 0.00in /  0mm 288 W/m2
09:29 47.7 °F /  8.7 °C 38 °F /  3.3 °C 29.89in /  1012.1hPa WSW 1.3mph /  2.1km/h 9mph /  14.5km/h 68.9% 0.00in /  0mm 267 W/m2
09:34 47.8 °F /  8.8 °C 38.4 °F /  3.6 °C 29.89in /  1012.1hPa West 0.7mph /  1.1km/h 9mph /  14.5km/h 69.8% 0.00in /  0mm 227 W/m2
09:39 48 °F /  8.9 °C 38.6 °F /  3.7 °C 29.89in /  1012.1hPa West 0.3mph /  0.5km/h 4mph /  6.4km/h 69.9% 0.00in /  0mm 127 W/m2
09:44 48.1 °F /  8.9 °C 38.6 °F /  3.7 °C 29.89in /  1012.1hPa West 1.6mph /  2.6km/h 5mph /  8km/h 69.5% 0.00in /  0mm 359 W/m2
09:49 48.2 °F /  9 °C 38.3 °F /  3.5 °C 29.89in /  1012.1hPa West 0.2mph /  0.3km/h 5mph /  8km/h 68.5% 0.00in /  0mm 427 W/m2
09:54 48.5 °F /  9.2 °C 38.6 °F /  3.7 °C 29.89in /  1012.1hPa West 0.7mph /  1.1km/h 5mph /  8km/h 68.3% 0.00in /  0mm 320 W/m2
09:59 49 °F /  9.4 °C 39.1 °F /  3.9 °C 29.89in /  1012.1hPa West 0.5mph /  0.8km/h 5mph /  8km/h 68.5% 0.00in /  0mm 383 W/m2
10:04 49.5 °F /  9.7 °C 39.4 °F /  4.1 °C 29.89in /  1012.1hPa West 0.3mph /  0.5km/h 5mph /  8km/h 68% 0.00in /  0mm 439 W/m2
10:09 50.1 °F /  10.1 °C 39.1 °F /  3.9 °C 29.89in /  1012.1hPa West 1mph /  1.6km/h 7mph /  11.3km/h 65.9% 0.00in /  0mm 487 W/m2
10:14 50.7 °F /  10.4 °C 39.5 °F /  4.2 °C 29.89in /  1012.1hPa West 0.4mph /  0.6km/h 7mph /  11.3km/h 65.3% 0.00in /  0mm 429 W/m2
10:19 51.1 °F /  10.6 °C 38.8 °F /  3.8 °C 29.88in /  1011.7hPa West 0.9mph /  1.4km/h 7mph /  11.3km/h 62.6% 0.00in /  0mm 399 W/m2
10:24 51.3 °F /  10.7 °C 38.3 °F /  3.5 °C 29.89in /  1012.1hPa West 0.7mph /  1.1km/h 7mph /  11.3km/h 61.1% 0.00in /  0mm 292 W/m2
10:29 51.3 °F /  10.7 °C 38.8 °F /  3.8 °C 29.88in /  1011.7hPa West 0.1mph /  0.2km/h 7mph /  11.3km/h 62.2% 0.00in /  0mm 257 W/m2
10:34 51.3 °F /  10.7 °C 38.9 °F /  3.8 °C 29.88in /  1011.7hPa Calm   7mph /  11.3km/h 62.5% 0.00in /  0mm 316 W/m2
10:39 51.3 °F /  10.7 °C 38.8 °F /  3.8 °C 29.88in /  1011.7hPa West 0.3mph /  0.5km/h 4mph /  6.4km/h 62% 0.00in /  0mm 283 W/m2
10:44 51.5 °F /  10.8 °C 39.5 °F /  4.2 °C 29.88in /  1011.7hPa Calm   4mph /  6.4km/h 63.2% 0.00in /  0mm 285 W/m2
10:49 51.9 °F /  11.1 °C 39.4 °F /  4.1 °C 29.88in /  1011.7hPa West 0.7mph /  1.1km/h 4mph /  6.4km/h 62.2% 0.00in /  0mm 218 W/m2
10:54 52.1 °F /  11.2 °C 39 °F /  3.9 °C 29.88in /  1011.7hPa West 1.1mph /  1.8km/h 6mph /  9.7km/h 60.8% 0.00in /  0mm 206 W/m2
10:59 52.1 °F /  11.2 °C 38 °F /  3.3 °C 29.87in /  1011.4hPa West 1.1mph /  1.8km/h 7mph /  11.3km/h 58.6% 0.00in /  0mm 207 W/m2
11:04 51.9 °F /  11.1 °C 37.7 °F /  3.2 °C 29.87in /  1011.4hPa West 1.2mph /  1.9km/h 7mph /  11.3km/h 58.3% 0.00in /  0mm 299 W/m2
11:09 51.8 °F /  11 °C 37.9 °F /  3.3 °C 29.87in /  1011.4hPa WNW 1.9mph /  3.1km/h 11mph /  17.7km/h 59% 0.00in /  0mm 299 W/m2
11:14 51.6 °F /  10.9 °C 37.7 °F /  3.2 °C 29.87in /  1011.4hPa West 1.7mph /  2.7km/h 11mph /  17.7km/h 59% 0.00in /  0mm 193 W/m2
11:19 51.3 °F /  10.7 °C 37.5 °F /  3.1 °C 29.87in /  1011.4hPa West 0.9mph /  1.4km/h 11mph /  17.7km/h 59.1% 0.00in /  0mm 221 W/m2
11:24 51.2 °F /  10.7 °C 38.1 °F /  3.4 °C 29.86in /  1011.1hPa West 1.1mph /  1.8km/h 11mph /  17.7km/h 60.6% 0.00in /  0mm 221 W/m2
11:29 51.3 °F /  10.7 °C 38.2 °F /  3.4 °C 29.86in /  1011.1hPa West 0.9mph /  1.4km/h 11mph /  17.7km/h 60.6% 0.00in /  0mm 190 W/m2
11:34 51.5 °F /  10.8 °C 37.8 °F /  3.2 °C 29.86in /  1011.1hPa West 2.9mph /  4.7km/h 11mph /  17.7km/h 59.4% 0.00in /  0mm 193 W/m2
11:39 51.4 °F /  10.8 °C 37.2 °F /  2.9 °C 29.86in /  1011.1hPa WSW 1.4mph /  2.3km/h 8mph /  12.9km/h 58.2% 0.00in /  0mm 207 W/m2
11:44 51.4 °F /  10.8 °C 37.3 °F /  2.9 °C 29.86in /  1011.1hPa WSW 1.8mph /  2.9km/h 9mph /  14.5km/h 58.3% 0.00in /  0mm 255 W/m2
11:49 51.5 °F /  10.8 °C 37.5 °F /  3.1 °C 29.86in /  1011.1hPa West 1.2mph /  1.9km/h 9mph /  14.5km/h 58.7% 0.00in /  0mm 229 W/m2
11:54 51.6 °F /  10.9 °C 37.1 °F /  2.8 °C 29.86in /  1011.1hPa West 0.6mph /  1km/h 9mph /  14.5km/h 57.5% 0.00in /  0mm 213 W/m2
11:55 51.7 °F /  10.9 °C 37.4 °F /  3 °C 29.85in /  1010.7hPa Calm   9mph /  14.5km/h 58% 0.00in /  0mm 209 W/m2
12:09 51.8 °F /  11 °C 37.6 °F /  3.1 °C 29.85in /  1010.7hPa WSW 0.4mph /  0.6km/h 4mph /  6.4km/h 58.2% 0.00in /  0mm 186 W/m2
12:14 51.8 °F /  11 °C 37.2 °F /  2.9 °C 29.85in /  1010.7hPa WSW 0.2mph /  0.3km/h 4mph /  6.4km/h 57.4% 0.00in /  0mm 195 W/m2
12:19 51.8 °F /  11 °C 37.3 °F /  2.9 °C 29.85in /  1010.7hPa WSW 1.3mph /  2.1km/h 6mph /  9.7km/h 57.6% 0.00in /  0mm 243 W/m2
12:24 51.8 °F /  11 °C 37.2 °F /  2.9 °C 29.85in /  1010.7hPa WSW 0.7mph /  1.1km/h 6mph /  9.7km/h 57.3% 0.00in /  0mm 278 W/m2
12:29 52 °F /  11.1 °C 37.2 °F /  2.9 °C 29.85in /  1010.7hPa WSW 0.4mph /  0.6km/h 6mph /  9.7km/h 57% 0.00in /  0mm 362 W/m2
12:34 52.2 °F /  11.2 °C 36.7 °F /  2.6 °C 29.85in /  1010.7hPa WSW 0.2mph /  0.3km/h 6mph /  9.7km/h 55.4% 0.00in /  0mm 278 W/m2
12:39 52.3 °F /  11.3 °C 36.6 °F /  2.6 °C 29.84in /  1010.4hPa SW 1mph /  1.6km/h 6mph /  9.7km/h 54.8% 0.00in /  0mm 193 W/m2
12:44 52.3 °F /  11.3 °C 37.1 °F /  2.8 °C 29.84in /  1010.4hPa SW 0.5mph /  0.8km/h 6mph /  9.7km/h 55.9% 0.00in /  0mm 183 W/m2
12:49 52.2 °F /  11.2 °C 36.4 °F /  2.4 °C 29.84in /  1010.4hPa WSW 0.5mph /  0.8km/h 6mph /  9.7km/h 54.7% 0.00in /  0mm 202 W/m2
12:54 52.1 °F /  11.2 °C 37 °F /  2.8 °C 29.84in /  1010.4hPa West 0.9mph /  1.4km/h 6mph /  9.7km/h 56.2% 0.00in /  0mm 206 W/m2
12:59 52.2 °F /  11.2 °C 36.7 °F /  2.6 °C 29.83in /  1010hPa WNW 1.2mph /  1.9km/h 6mph /  9.7km/h 55.5% 0.00in /  0mm 197 W/m2
13:04 52.2 °F /  11.2 °C 36.5 °F /  2.5 °C 29.83in /  1010hPa WNW 0.1mph /  0.2km/h 6mph /  9.7km/h 55.1% 0.00in /  0mm 178 W/m2
13:09 52.2 °F /  11.2 °C 36.5 °F /  2.5 °C 29.83in /  1010hPa Calm   2mph /  3.2km/h 55.1% 0.00in /  0mm 151 W/m2
13:14 52 °F /  11.1 °C 36 °F /  2.2 °C 29.83in /  1010hPa WNW 0.1mph /  0.2km/h 2mph /  3.2km/h 54.2% 0.00in /  0mm 139 W/m2
13:19 51.8 °F /  11 °C 35.7 °F /  2.1 °C 29.82in /  1009.7hPa Calm   2mph /  3.2km/h 54% 0.00in /  0mm 134 W/m2
13:24 51.6 °F /  10.9 °C 36.1 °F /  2.3 °C 29.82in /  1009.7hPa Calm   2mph /  3.2km/h 55.4% 0.00in /  0mm 134 W/m2
13:29 51.5 °F /  10.8 °C 36.3 °F /  2.4 °C 29.82in /  1009.7hPa WNW 0.1mph /  0.2km/h 3mph /  4.8km/h 56% 0.00in /  0mm 128 W/m2
13:34 51.4 °F /  10.8 °C 36.3 °F /  2.4 °C 29.82in /  1009.7hPa Calm   3mph /  4.8km/h 56% 0.00in /  0mm 128 W/m2
13:39 51.4 °F /  10.8 °C 36 °F /  2.2 °C 29.83in /  1010hPa Calm   1mph /  1.6km/h 55.4% 0.00in /  0mm 141 W/m2
13:44 51.4 °F /  10.8 °C 36.5 °F /  2.5 °C 29.83in /  1010hPa Calm   1mph /  1.6km/h 56.5% 0.00in /  0mm 144 W/m2
13:49 51.4 °F /  10.8 °C 35.5 °F /  1.9 °C 29.83in /  1010hPa WNW 0.2mph /  0.3km/h 3mph /  4.8km/h 54.3% 0.00in /  0mm 144 W/m2
13:54 51.4 °F /  10.8 °C 35.1 °F /  1.7 °C 29.83in /  1010hPa Calm   3mph /  4.8km/h 53.4% 0.00in /  0mm 128 W/m2
13:59 51.4 °F /  10.8 °C 36.1 °F /  2.3 °C 29.83in /  1010hPa Calm   3mph /  4.8km/h 55.7% 0.00in /  0mm 123 W/m2
14:04 51.5 °F /  10.8 °C 36.2 °F /  2.3 °C 29.82in /  1009.7hPa Calm   3mph /  4.8km/h 55.7% 0.00in /  0mm 109 W/m2
14:09 51.5 °F /  10.8 °C 36.6 °F /  2.6 °C 29.82in /  1009.7hPa WNW 0.1mph /  0.2km/h 1mph /  1.6km/h 56.7% 0.00in /  0mm 95 W/m2
14:14 51.5 °F /  10.8 °C 36 °F /  2.2 °C 29.82in /  1009.7hPa WNW 0.3mph /  0.5km/h 3mph /  4.8km/h 55.3% 0.00in /  0mm 102 W/m2
14:19 51.3 °F /  10.7 °C 35.6 °F /  2 °C 29.82in /  1009.7hPa WNW 0.1mph /  0.2km/h 3mph /  4.8km/h 54.7% 0.00in /  0mm 102 W/m2
14:24 51.2 °F /  10.7 °C 35.2 °F /  1.8 °C 29.82in /  1009.7hPa Calm   3mph /  4.8km/h 54.1% 0.00in /  0mm 97 W/m2
14:29 51 °F /  10.6 °C 35.3 °F /  1.8 °C 29.82in /  1009.7hPa Calm   3mph /  4.8km/h 54.7% 0.00in /  0mm 93 W/m2
14:34 50.9 °F /  10.5 °C 35.8 °F /  2.1 °C 29.82in /  1009.7hPa Calm   3mph /  4.8km/h 55.9% 0.00in /  0mm 84 W/m2
14:39 50.9 °F /  10.5 °C 35.9 °F /  2.2 °C 29.82in /  1009.7hPa WNW 0.2mph /  0.3km/h 4mph /  6.4km/h 56.4% 0.00in /  0mm 76 W/m2
14:44 50.8 °F /  10.4 °C 35.4 °F /  1.9 °C 29.82in /  1009.7hPa Calm   4mph /  6.4km/h 55.5% 0.00in /  0mm 62 W/m2
14:49 50.6 °F /  10.3 °C 35.2 °F /  1.8 °C 29.82in /  1009.7hPa West 0.1mph /  0.2km/h 4mph /  6.4km/h 55.4% 0.00in /  0mm 54 W/m2
14:54 50.5 °F /  10.3 °C 35.2 °F /  1.8 °C 29.82in /  1009.7hPa West 0.4mph /  0.6km/h 4mph /  6.4km/h 55.5% 0.00in /  0mm 51 W/m2
14:59 50.5 °F /  10.3 °C 35.4 °F /  1.9 °C 29.82in /  1009.7hPa Calm   4mph /  6.4km/h 56% 0.00in /  0mm 53 W/m2
15:04 50.4 °F /  10.2 °C 35.4 °F /  1.9 °C 29.82in /  1009.7hPa Calm   4mph /  6.4km/h 56.2% 0.00in /  0mm 54 W/m2
15:09 50.3 °F /  10.2 °C 35.7 °F /  2.1 °C 29.82in /  1009.7hPa West 0.3mph /  0.5km/h 4mph /  6.4km/h 57.2% 0.00in /  0mm 54 W/m2
15:14 50.2 °F /  10.1 °C 36.3 °F /  2.4 °C 29.81in /  1009.4hPa West 0.1mph /  0.2km/h 4mph /  6.4km/h 58.7% 0.00in /  0mm 53 W/m2
15:19 50.1 °F /  10.1 °C 36.4 °F /  2.4 °C 29.81in /  1009.4hPa WSW 1.4mph /  2.3km/h 5mph /  8km/h 59.2% 0.00in /  0mm 42 W/m2
15:24 50 °F /  10 °C 36.5 °F /  2.5 °C 29.81in /  1009.4hPa WSW 0.1mph /  0.2km/h 5mph /  8km/h 59.7% 0.00in /  0mm 30 W/m2
15:29 49.9 °F /  9.9 °C 36.6 °F /  2.6 °C 29.81in /  1009.4hPa WSW 0.3mph /  0.5km/h 5mph /  8km/h 60% 0.00in /  0mm 26 W/m2
15:34 49.8 °F /  9.9 °C 36.7 °F /  2.6 °C 29.82in /  1009.7hPa WSW 0.4mph /  0.6km/h 5mph /  8km/h 60.4% 0.00in /  0mm 23 W/m2
15:39 49.7 °F /  9.8 °C 37 °F /  2.8 °C 29.82in /  1009.7hPa Calm   3mph /  4.8km/h 61.3% 0.00in /  0mm 23 W/m2
15:44 49.6 °F /  9.8 °C 36.7 °F /  2.6 °C 29.82in /  1009.7hPa SW 0.3mph /  0.5km/h 4mph /  6.4km/h 61% 0.00in /  0mm 26 W/m2
15:49 49.6 °F /  9.8 °C 37.3 °F /  2.9 °C 29.82in /  1009.7hPa SW 0.1mph /  0.2km/h 4mph /  6.4km/h 62.5% 0.00in /  0mm 30 W/m2
15:54 49.6 °F /  9.8 °C 37.5 °F /  3.1 °C 29.82in /  1009.7hPa SW 0.1mph /  0.2km/h 4mph /  6.4km/h 63% 0.00in /  0mm 30 W/m2
15:59 49.5 °F /  9.7 °C 37.5 °F /  3.1 °C 29.82in /  1009.7hPa Calm   4mph /  6.4km/h 63.2% 0.00in /  0mm 25 W/m2
16:00 49.6 °F /  9.8 °C 37.5 °F /  3.1 °C 29.82in /  1009.7hPa Calm   4mph /  6.4km/h 63% 0.00in /  0mm 25 W/m2
16:09 49.4 °F /  9.7 °C 37.1 °F /  2.8 °C 29.82in /  1009.7hPa Calm   2mph /  3.2km/h 62.3% 0.00in /  0mm 18 W/m2
16:14 49.2 °F /  9.6 °C 36.5 °F /  2.5 °C 29.82in /  1009.7hPa SW 0.6mph /  1km/h 4mph /  6.4km/h 61.3% 0.00in /  0mm 11 W/m2
16:19 49 °F /  9.4 °C 35.9 °F /  2.2 °C 29.81in /  1009.4hPa SW 0.5mph /  0.8km/h 4mph /  6.4km/h 60.5% 0.00in /  0mm 7 W/m2
16:24 48.7 °F /  9.3 °C 36.1 °F /  2.3 °C 29.81in /  1009.4hPa SW 0.9mph /  1.4km/h 6mph /  9.7km/h 61.5% 0.00in /  0mm 5 W/m2
16:29 48.5 °F /  9.2 °C 36.4 °F /  2.4 °C 29.82in /  1009.7hPa SW 0.2mph /  0.3km/h 6mph /  9.7km/h 62.6% 0.00in /  0mm 0 W/m2
16:34 48.4 °F /  9.1 °C 36.4 °F /  2.4 °C 29.82in /  1009.7hPa SW 0.1mph /  0.2km/h 6mph /  9.7km/h 63% 0.00in /  0mm 0 W/m2
16:39 48.2 °F /  9 °C 36.2 °F /  2.3 °C 29.82in /  1009.7hPa Calm   2mph /  3.2km/h 63% 0.00in /  0mm 0 W/m2
16:44 48 °F /  8.9 °C 36.3 °F /  2.4 °C 29.82in /  1009.7hPa SW 0.2mph /  0.3km/h 3mph /  4.8km/h 63.7% 0.00in /  0mm 0 W/m2
16:49 47.9 °F /  8.8 °C 36.4 °F /  2.4 °C 29.82in /  1009.7hPa SW 0.1mph /  0.2km/h 3mph /  4.8km/h 64.2% 0.00in /  0mm 0 W/m2
16:54 47.9 °F /  8.8 °C 36.6 °F /  2.6 °C 29.82in /  1009.7hPa Calm   3mph /  4.8km/h 64.7% 0.00in /  0mm 0 W/m2
16:59 47.8 °F /  8.8 °C 36.8 °F /  2.7 °C 29.81in /  1009.4hPa Calm   3mph /  4.8km/h 65.5% 0.00in /  0mm 0 W/m2
17:04 47.7 °F /  8.7 °C 36.9 °F /  2.7 °C 29.81in /  1009.4hPa SW 0.3mph /  0.5km/h 3mph /  4.8km/h 66% 0.00in /  0mm 0 W/m2
17:09 47.7 °F /  8.7 °C 36.9 °F /  2.7 °C 29.81in /  1009.4hPa Calm   3mph /  4.8km/h 66% 0.00in /  0mm 0 W/m2
17:14 47.6 °F /  8.7 °C 36.8 °F /  2.7 °C 29.81in /  1009.4hPa Calm   3mph /  4.8km/h 66% 0.00in /  0mm 0 W/m2
17:19 47.5 °F /  8.6 °C 37.1 °F /  2.8 °C 29.81in /  1009.4hPa Calm   3mph /  4.8km/h 66.9% 0.00in /  0mm 0 W/m2
17:24 47.4 °F /  8.6 °C 37 °F /  2.8 °C 29.80in /  1009hPa SW 0.1mph /  0.2km/h 3mph /  4.8km/h 67% 0.00in /  0mm 0 W/m2
17:29 47.3 °F /  8.5 °C 37 °F /  2.8 °C 29.80in /  1009hPa Calm   3mph /  4.8km/h 67.2% 0.00in /  0mm 0 W/m2
17:34 47.2 °F /  8.4 °C 37.2 °F /  2.9 °C 29.81in /  1009.4hPa SW 0.3mph /  0.5km/h 4mph /  6.4km/h 68% 0.00in /  0mm 0 W/m2
17:39 47.2 °F /  8.4 °C 37.2 °F /  2.9 °C 29.80in /  1009hPa SW 0.3mph /  0.5km/h 4mph /  6.4km/h 68% 0.00in /  0mm 0 W/m2
17:44 47.2 °F /  8.4 °C 37.2 °F /  2.9 °C 29.80in /  1009hPa SSW 0.5mph /  0.8km/h 4mph /  6.4km/h 68% 0.00in /  0mm 0 W/m2
17:49 47.1 °F /  8.4 °C 37.1 °F /  2.8 °C 29.81in /  1009.4hPa SSW 0.2mph /  0.3km/h 4mph /  6.4km/h 68% 0.00in /  0mm 0 W/m2
17:54 47 °F /  8.3 °C 37 °F /  2.8 °C 29.80in /  1009hPa SSW 0.9mph /  1.4km/h 5mph /  8km/h 68% 0.00in /  0mm 0 W/m2
17:59 46.9 °F /  8.3 °C 37.1 °F /  2.8 °C 29.81in /  1009.4hPa South 0.8mph /  1.3km/h 7mph /  11.3km/h 68.5% 0.00in /  0mm 0 W/m2
18:04 46.8 °F /  8.2 °C 37.2 °F /  2.9 °C 29.81in /  1009.4hPa South 0.4mph /  0.6km/h 7mph /  11.3km/h 69.1% 0.00in /  0mm 0 W/m2
18:09 46.6 °F /  8.1 °C 37.4 °F /  3 °C 29.81in /  1009.4hPa South 0.1mph /  0.2km/h 3mph /  4.8km/h 70% 0.00in /  0mm 0 W/m2
18:14 46.5 °F /  8.1 °C 37.3 °F /  2.9 °C 29.82in /  1009.7hPa South 0.3mph /  0.5km/h 3mph /  4.8km/h 70.2% 0.00in /  0mm 0 W/m2
18:19 46.2 °F /  7.9 °C 37.4 °F /  3 °C 29.82in /  1009.7hPa SSW 0.2mph /  0.3km/h 3mph /  4.8km/h 71% 0.00in /  0mm 0 W/m2
18:24 46.1 °F /  7.8 °C 37.4 °F /  3 °C 29.82in /  1009.7hPa SSW 0.2mph /  0.3km/h 3mph /  4.8km/h 71.6% 0.00in /  0mm 0 W/m2
18:29 45.9 °F /  7.7 °C 37.4 °F /  3 °C 29.82in /  1009.7hPa SSW 0.1mph /  0.2km/h 3mph /  4.8km/h 72% 0.00in /  0mm 0 W/m2
18:34 45.8 °F /  7.7 °C 37.6 °F /  3.1 °C 29.82in /  1009.7hPa SSW 0.1mph /  0.2km/h 3mph /  4.8km/h 73% 0.00in /  0mm 0 W/m2
18:39 45.7 °F /  7.6 °C 37.5 °F /  3.1 °C 29.81in /  1009.4hPa Calm   2mph /  3.2km/h 73% 0.00in /  0mm 0 W/m2
18:44 45.7 °F /  7.6 °C 37.6 °F /  3.1 °C 29.81in /  1009.4hPa Calm   2mph /  3.2km/h 73% 0.00in /  0mm 0 W/m2
18:49 45.8 °F /  7.7 °C 37.8 °F /  3.2 °C 29.81in /  1009.4hPa Calm   2mph /  3.2km/h 73.3% 0.00in /  0mm 0 W/m2
18:54 45.9 °F /  7.7 °C 38.1 °F /  3.4 °C 29.80in /  1009hPa Calm   2mph /  3.2km/h 74% 0.00in /  0mm 0 W/m2
18:59 46 °F /  7.8 °C 38.1 °F /  3.4 °C 29.80in /  1009hPa Calm   2mph /  3.2km/h 73.8% 0.00in /  0mm 0 W/m2
19:04 46 °F /  7.8 °C 37.8 °F /  3.2 °C 29.80in /  1009hPa Calm   2mph /  3.2km/h 73% 0.00in /  0mm 0 W/m2
19:09 46 °F /  7.8 °C 38.2 °F /  3.4 °C 29.80in /  1009hPa Calm     74% 0.00in /  0mm 0 W/m2
19:14 46 °F /  7.8 °C 38.2 °F /  3.4 °C 29.80in /  1009hPa Calm     74% 0.00in /  0mm 0 W/m2
19:19 46 °F /  7.8 °C 38.2 °F /  3.4 °C 29.80in /  1009hPa Calm     74% 0.00in /  0mm 0 W/m2
19:24 46 °F /  7.8 °C 38.1 °F /  3.4 °C 29.80in /  1009hPa Calm     74% 0.00in /  0mm 0 W/m2
19:29 45.9 °F /  7.7 °C 38.1 °F /  3.4 °C 29.79in /  1008.7hPa Calm     74% 0.00in /  0mm 0 W/m2
19:34 45.8 °F /  7.7 °C 38 °F /  3.3 °C 29.79in /  1008.7hPa Calm     74% 0.00in /  0mm 0 W/m2
19:39 45.7 °F /  7.6 °C 38.2 °F /  3.4 °C 29.80in /  1009hPa Calm     74.9% 0.00in /  0mm 0 W/m2
19:44 45.6 °F /  7.6 °C 38.2 °F /  3.4 °C 29.79in /  1008.7hPa Calm     75% 0.00in /  0mm 0 W/m2
19:49 45.6 °F /  7.6 °C 38.1 °F /  3.4 °C 29.79in /  1008.7hPa Calm     75% 0.00in /  0mm 0 W/m2
19:54 45.5 °F /  7.5 °C 38.1 °F /  3.4 °C 29.79in /  1008.7hPa Calm     75% 0.00in /  0mm 0 W/m2
19:59 45.4 °F /  7.4 °C 38.1 °F /  3.4 °C 29.79in /  1008.7hPa Calm     75.3% 0.00in /  0mm 0 W/m2
20:00 45.4 °F /  7.4 °C 38 °F /  3.3 °C 29.79in /  1008.7hPa Calm     75% 0.00in /  0mm 0 W/m2
20:09 45.3 °F /  7.4 °C 38.2 °F /  3.4 °C 29.79in /  1008.7hPa Calm     76% 0.00in /  0mm 0 W/m2
20:14 45.2 °F /  7.3 °C 38.1 °F /  3.4 °C 29.78in /  1008.4hPa Calm     76% 0.00in /  0mm 0 W/m2
20:19 45.2 °F /  7.3 °C 38.1 °F /  3.4 °C 29.79in /  1008.7hPa Calm     76% 0.00in /  0mm 0 W/m2
20:24 45.1 °F /  7.3 °C 38 °F /  3.3 °C 29.79in /  1008.7hPa Calm     76% 0.00in /  0mm 0 W/m2
20:29 45.1 °F /  7.3 °C 38.3 °F /  3.5 °C 29.79in /  1008.7hPa Calm     76.8% 0.00in /  0mm 0 W/m2
20:34 45 °F /  7.2 °C 38.2 °F /  3.4 °C 29.79in /  1008.7hPa Calm     77% 0.00in /  0mm 0 W/m2
20:39 44.9 °F /  7.2 °C 38.1 °F /  3.4 °C 29.79in /  1008.7hPa Calm     77% 0.00in /  0mm 0 W/m2
20:44 44.8 °F /  7.1 °C 38 °F /  3.3 °C 29.79in /  1008.7hPa Calm     77% 0.00in /  0mm 0 W/m2
20:49 44.7 °F /  7.1 °C 38.1 °F /  3.4 °C 29.79in /  1008.7hPa Calm     77.4% 0.00in /  0mm 0 W/m2
20:54 44.6 °F /  7 °C 38.1 °F /  3.4 °C 29.79in /  1008.7hPa Calm     77.8% 0.00in /  0mm 0 W/m2
20:59 44.5 °F /  6.9 °C 38.1 °F /  3.4 °C 29.78in /  1008.4hPa Calm     78% 0.00in /  0mm 0 W/m2
21:04 44.5 °F /  6.9 °C 38 °F /  3.3 °C 29.78in /  1008.4hPa Calm     78% 0.00in /  0mm 0 W/m2
21:09 44.4 °F /  6.9 °C 38.1 °F /  3.4 °C 29.79in /  1008.7hPa Calm     78.4% 0.00in /  0mm 0 W/m2
21:14 44.4 °F /  6.9 °C 38.2 °F /  3.4 °C 29.78in /  1008.4hPa Calm     78.8% 0.00in /  0mm 0 W/m2
21:19 44.4 °F /  6.9 °C 38.3 °F /  3.5 °C 29.78in /  1008.4hPa Calm     79% 0.00in /  0mm 0 W/m2
21:24 44.4 °F /  6.9 °C 38.5 °F /  3.6 °C 29.78in /  1008.4hPa Calm     79.3% 0.00in /  0mm 0 W/m2
21:29 44.5 °F /  6.9 °C 38.7 °F /  3.7 °C 29.78in /  1008.4hPa Calm     80% 0.00in /  0mm 0 W/m2
21:34 44.5 °F /  6.9 °C 38.4 °F /  3.6 °C 29.78in /  1008.4hPa Calm     79% 0.00in /  0mm 0 W/m2
21:39 44.5 °F /  6.9 °C 38.4 °F /  3.6 °C 29.77in /  1008hPa Calm     79% 0.00in /  0mm 0 W/m2
21:44 44.5 °F /  6.9 °C 38.4 °F /  3.6 °C 29.77in /  1008hPa Calm     79% 0.00in /  0mm 0 W/m2
21:49 44.5 °F /  6.9 °C 38.4 °F /  3.6 °C 29.77in /  1008hPa Calm     79% 0.00in /  0mm 0 W/m2
21:54 44.5 °F /  6.9 °C 38.4 °F /  3.6 °C 29.77in /  1008hPa Calm     79% 0.00in /  0mm 0 W/m2
21:59 44.6 °F /  7 °C 38.1 °F /  3.4 °C 29.77in /  1008hPa Calm     77.8% 0.00in /  0mm 0 W/m2
22:04 44.6 °F /  7 °C 37.9 °F /  3.3 °C 29.77in /  1008hPa Calm     77.1% 0.00in /  0mm 0 W/m2
22:09 44.7 °F /  7.1 °C 38.3 °F /  3.5 °C 29.76in /  1007.7hPa Calm     78% 0.00in /  0mm 0 W/m2
22:14 44.7 °F /  7.1 °C 38.2 °F /  3.4 °C 29.76in /  1007.7hPa Calm     77.7% 0.00in /  0mm 0 W/m2
22:19 44.7 °F /  7.1 °C 37.9 °F /  3.3 °C 29.76in /  1007.7hPa Calm     77% 0.00in /  0mm 0 W/m2
22:24 44.7 °F /  7.1 °C 37.9 °F /  3.3 °C 29.76in /  1007.7hPa Calm     77% 0.00in /  0mm 0 W/m2
22:29 44.7 °F /  7.1 °C 37.9 °F /  3.3 °C 29.76in /  1007.7hPa Calm     77% 0.00in /  0mm 0 W/m2
22:34 44.6 °F /  7 °C 38.1 °F /  3.4 °C 29.76in /  1007.7hPa Calm     77.7% 0.00in /  0mm 0 W/m2
22:39 44.6 °F /  7 °C 38.2 °F /  3.4 °C 29.76in /  1007.7hPa Calm   1mph /  1.6km/h 78% 0.00in /  0mm 0 W/m2
22:44 44.5 °F /  6.9 °C 37.7 °F /  3.2 °C 29.76in /  1007.7hPa Calm   1mph /  1.6km/h 76.9% 0.00in /  0mm 0 W/m2
22:49 44.4 °F /  6.9 °C 37.4 °F /  3 °C 29.76in /  1007.7hPa Calm   1mph /  1.6km/h 76% 0.00in /  0mm 0 W/m2
22:54 44.4 °F /  6.9 °C 37.3 °F /  2.9 °C 29.76in /  1007.7hPa SSW 0.3mph /  0.5km/h 4mph /  6.4km/h 76% 0.00in /  0mm 0 W/m2
22:59 44.4 °F /  6.9 °C 37.3 °F /  2.9 °C 29.76in /  1007.7hPa SW 0.9mph /  1.4km/h 5mph /  8km/h 76% 0.00in /  0mm 0 W/m2
23:00 44.4 °F /  6.9 °C 37.3 °F /  2.9 °C 29.76in /  1007.7hPa Calm   5mph /  8km/h 76% 0.00in /  0mm 0 W/m2
23:09 44.5 °F /  6.9 °C 37.7 °F /  3.2 °C 29.76in /  1007.7hPa SW 0.6mph /  1km/h 5mph /  8km/h 77% 0.00in /  0mm 0 W/m2
23:14 44.4 °F /  6.9 °C 37.7 °F /  3.2 °C 29.76in /  1007.7hPa SW 0.2mph /  0.3km/h 5mph /  8km/h 77% 0.00in /  0mm 0 W/m2
23:19 44.4 °F /  6.9 °C 38 °F /  3.3 °C 29.76in /  1007.7hPa SW 2.2mph /  3.5km/h 10mph /  16.1km/h 78.1% 0.00in /  0mm 0 W/m2
23:24 44.2 °F /  6.8 °C 38.2 °F /  3.4 °C 29.76in /  1007.7hPa SW 3.7mph /  6km/h 10mph /  16.1km/h 79.1% 0.00in /  0mm 0 W/m2
23:29 44 °F /  6.7 °C 38.3 °F /  3.5 °C 29.76in /  1007.7hPa SW 2.2mph /  3.5km/h 10mph /  16.1km/h 80.3% 0.01in /  0.25mm 0 W/m2
23:34 43.8 °F /  6.6 °C 38.3 °F /  3.5 °C 29.76in /  1007.7hPa SW 0.3mph /  0.5km/h 10mph /  16.1km/h 81% 0.01in /  0.25mm 0 W/m2
23:39 43.6 °F /  6.4 °C 38.5 °F /  3.6 °C 29.76in /  1007.7hPa SW 0.1mph /  0.2km/h 3mph /  4.8km/h 82.2% 0.02in /  0.51mm 0 W/m2
23:44 43.4 °F /  6.3 °C 38.7 °F /  3.7 °C 29.76in /  1007.7hPa SW 0.1mph /  0.2km/h 3mph /  4.8km/h 83.3% 0.02in /  0.51mm 0 W/m2
23:49 43.2 °F /  6.2 °C 38.7 °F /  3.7 °C 29.76in /  1007.7hPa SW 0.3mph /  0.5km/h 4mph /  6.4km/h 84% 0.02in /  0.51mm 0 W/m2
23:53 43 °F /  6.1 °C 38.8 °F /  3.8 °C 29.76in /  1007.7hPa SW 0.7mph /  1.1km/h 4mph /  6.4km/h 84.7% 0.02in /  0.51mm 0 W/m2
23:59 42.8 °F /  6 °C 38.6 °F /  3.7 °C 29.76in /  1007.7hPa SW 1.1mph /  1.8km/h 6mph /  9.7km/h 85% 0.02in /  0.51mm 0 W/m2
Hartford County Weather
Compliments of Weather Underground - 4 mb